Time;durP1;ratioP1;P1;durP2;ratioP2;P2;SDS_P1;SDS_P2;PMS_P1;PMS_P2;Temp;Humidity;BMP_temperature;BMP_pressure;BME280_temperature;BME280_humidity;BME280_pressure;Samples;Min_cycle;Max_cycle;Signal;HPM_P1;HPM_P2
2023/03/16 00:02:10;;;;;;;;;34.00;25.67;;;;;-0.77;88.01;98647.91;4901283;28;102348;-69
2023/03/16 00:04:38;;;;;;;;;19.67;16.00;;;;;-0.76;87.06;98644.25;4892456;28;104150;-68
2023/03/16 00:07:10;;;;;;;;;26.67;23.00;;;;;-0.79;88.19;98652.50;4899551;28;102719;-69
2023/03/16 00:09:39;;;;;;;;;32.67;26.00;;;;;-0.84;88.34;98660.84;4906343;28;102226;-68
2023/03/16 00:12:14;;;;;;;;;23.67;23.00;;;;;-0.84;88.76;98660.84;4903439;28;102635;-68
2023/03/16 00:14:43;;;;;;;;;18.00;14.00;;;;;-0.82;88.96;98661.56;4896157;28;104017;-68
2023/03/16 00:17:17;;;;;;;;;18.00;16.33;;;;;-0.86;90.24;98656.66;4891066;28;102853;-68
2023/03/16 00:19:56;;;;;;;;;28.00;22.67;;;;;-0.86;89.45;98656.66;4903526;28;103307;-68
2023/03/16 00:22:27;;;;;;;;;29.67;27.00;;;;;-0.90;89.58;98659.53;4902435;28;102305;-69
2023/03/16 00:24:54;;;;;;;;;39.33;29.33;;;;;-0.96;90.76;98657.41;4902645;28;108735;-69
2023/03/16 00:27:23;;;;;;;;;33.00;24.33;;;;;-0.96;89.82;98662.72;4895885;28;102315;-68
2023/03/16 00:29:55;;;;;;;;;32.00;26.33;;;;;-1.09;90.69;98646.13;4897841;28;102360;-68
2023/03/16 00:32:25;;;;;;;;;24.67;21.33;;;;;-1.01;90.26;98670.22;4906270;28;102040;-68
2023/03/16 00:34:53;;;;;;;;;29.67;27.67;;;;;-1.09;91.56;98666.50;4904504;28;108834;-68
2023/03/16 00:37:22;;;;;;;;;24.67;23.33;;;;;-1.12;91.87;98675.56;4919372;28;102497;-68
2023/03/16 00:39:50;;;;;;;;;28.33;26.33;;;;;-1.11;92.13;98669.28;4897870;28;102330;-68
2023/03/16 00:42:18;;;;;;;;;27.67;23.00;;;;;-1.11;91.06;98679.91;4895428;28;102738;-68
2023/03/16 00:44:46;;;;;;;;;20.67;17.33;;;;;-1.12;90.98;98672.91;4904435;28;104022;-68
2023/03/16 00:47:13;;;;;;;;;24.33;22.67;;;;;-1.17;92.39;98675.09;4903619;28;103310;-68
2023/03/16 00:49:42;;;;;;;;;27.67;25.00;;;;;-1.19;91.81;98671.72;4904265;28;101873;-68
2023/03/16 00:52:14;;;;;;;;;25.33;22.33;;;;;-1.23;91.74;98677.41;4906130;28;101996;-68
2023/03/16 00:54:43;;;;;;;;;31.00;25.33;;;;;-1.26;91.80;98673.19;4905906;28;104003;-68
2023/03/16 00:57:13;;;;;;;;;31.33;25.67;;;;;-1.29;92.23;98676.09;4899466;28;102689;-68
2023/03/16 00:59:41;;;;;;;;;33.67;27.00;;;;;-1.30;92.65;98674.41;4894236;28;102561;-68
2023/03/16 01:02:09;;;;;;;;;19.00;16.33;;;;;-1.28;92.51;98677.78;4900855;28;101978;-68
2023/03/16 01:04:36;;;;;;;;;30.67;23.33;;;;;-1.28;92.22;98669.00;4896017;28;103667;-67
2023/03/16 01:07:05;;;;;;;;;27.33;23.00;;;;;-1.27;92.55;98678.63;4889350;28;102565;-68
2023/03/16 01:09:44;;;;;;;;;32.00;26.00;;;;;-1.28;93.51;98679.59;4891548;28;103628;-68
2023/03/16 01:12:32;;;;;;;;;24.33;21.67;;;;;-1.29;93.24;98676.09;4905520;28;102472;-68
2023/03/16 01:15:16;;;;;;;;;22.33;16.33;;;;;-1.30;93.14;98682.38;4904517;28;108060;-68
2023/03/16 01:17:57;;;;;;;;;24.00;22.00;;;;;-1.32;93.41;98681.66;4904360;28;102870;-68
2023/03/16 01:20:49;;;;;;;;;21.00;16.33;;;;;-1.30;93.59;98690.31;4897284;28;102564;-68
2023/03/16 01:23:31;;;;;;;;;14.00;13.00;;;;;-1.30;92.93;98690.31;4894612;28;102451;-68
2023/03/16 01:25:59;;;;;;;;;9.33;8.00;;;;;-1.32;92.78;98684.31;4898697;28;103982;-68
2023/03/16 01:28:29;;;;;;;;;17.00;14.67;;;;;-1.49;92.56;98690.16;4896252;28;102891;-68
2023/03/16 01:31:00;;;;;;;;;20.00;18.00;;;;;-1.69;93.64;98696.19;4895989;28;102178;-68
2023/03/16 01:33:28;;;;;;;;;15.00;15.00;;;;;-1.77;93.07;98691.50;4895333;28;102166;-68
2023/03/16 01:36:00;;;;;;;;;11.00;11.00;;;;;-1.78;94.48;98694.25;4899667;28;105039;-68
2023/03/16 01:38:27;;;;;;;;;11.00;8.00;;;;;-1.81;93.62;98695.38;4896176;28;104433;-69
2023/03/16 01:40:55;;;;;;;;;7.67;5.00;;;;;-1.81;93.58;98690.06;4902024;28;102586;-69
2023/03/16 01:43:27;;;;;;;;;7.00;5.00;;;;;-1.80;94.56;98692.56;4892481;28;102752;-68
2023/03/16 01:46:01;;;;;;;;;2.00;2.00;;;;;-1.81;93.95;98688.25;4903167;28;108724;-67
2023/03/16 01:48:36;;;;;;;;;3.33;1.33;;;;;-1.80;93.75;98699.69;4886083;28;102072;-69
2023/03/16 01:51:19;;;;;;;;;2.00;2.00;;;;;-1.81;94.60;98701.50;4895416;28;102135;-68
2023/03/16 01:53:52;;;;;;;;;3.33;1.00;;;;;-1.82;93.96;98710.41;4900950;28;104429;-68
2023/03/16 01:56:26;;;;;;;;;4.67;2.00;;;;;-1.89;94.87;98706.53;4900678;28;103961;-68
2023/03/16 01:58:57;;;;;;;;;4.33;4.00;;;;;-1.99;94.94;98707.41;4897555;28;102337;-70
2023/03/16 02:01:26;;;;;;;;;3.33;2.00;;;;;-2.02;94.55;98710.28;4893232;28;102376;-68
2023/03/16 02:04:12;;;;;;;;;6.33;5.00;;;;;-2.26;94.85;98690.06;4910549;28;102328;-68
2023/03/16 02:06:39;;;;;;;;;4.33;2.00;;;;;-2.20;94.67;98704.59;4896791;28;108355;-68
2023/03/16 02:09:08;;;;;;;;;4.00;3.33;;;;;-2.20;94.32;98709.91;4898544;28;105382;-68
2023/03/16 02:11:38;;;;;;;;;2.00;2.00;;;;;-2.21;93.42;98707.41;4895246;28;102129;-68
2023/03/16 02:14:15;;;;;;;;;3.33;2.00;;;;;-2.22;94.69;98714.50;4899996;28;102027;-68
2023/03/16 02:17:01;;;;;;;;;2.00;1.33;;;;;-2.23;92.89;98710.16;4898491;28;103208;-68
2023/03/16 02:20:10;;;;;;;;;1.67;1.00;;;;;-2.29;93.07;98719.41;4891527;28;102360;-68
2023/03/16 02:22:57;;;;;;;;;1.00;0.00;;;;;-2.33;93.55;98725.06;4893173;28;102134;-68
2023/03/16 02:25:47;;;;;;;;;2.00;0.00;;;;;-2.36;93.82;98727.94;4927887;28;102370;-68
2023/03/16 02:28:32;;;;;;;;;6.33;5.00;;;;;-2.39;93.82;98730.84;4897863;28;107928;-68
2023/03/16 02:31:08;;;;;;;;;8.00;7.67;;;;;-2.44;95.20;98738.28;4901165;28;102274;-68
2023/03/16 02:33:35;;;;;;;;;33.33;29.00;;;;;-2.72;97.41;98715.69;4892178;28;102032;-68
2023/03/16 02:36:03;;;;;;;;;23.33;21.00;;;;;-2.58;97.92;98735.84;4903694;28;102088;-68
2023/03/16 02:38:35;;;;;;;;;24.33;18.33;;;;;-2.63;96.73;98743.28;4893562;28;104342;-68
2023/03/16 02:41:12;;;;;;;;;15.67;14.00;;;;;-2.65;97.17;98745.16;4897244;28;102346;-68
2023/03/16 02:43:57;;;;;;;;;15.00;13.00;;;;;-2.66;96.43;98749.66;4898606;28;102334;-68
2023/03/16 02:46:27;;;;;;;;;11.67;8.67;;;;;-2.64;96.96;98757.44;4897456;28;102200;-68
2023/03/16 02:49:02;;;;;;;;;11.00;10.00;;;;;-2.64;96.68;98746.88;4902380;28;108752;-70
2023/03/16 02:51:31;;;;;;;;;7.33;7.00;;;;;-2.66;96.25;98754.09;4893077;28;102581;-68
2023/03/16 02:53:58;;;;;;;;;2.00;1.00;;;;;-2.63;96.51;98767.09;4901866;28;102307;-69
2023/03/16 02:56:26;;;;;;;;;4.00;3.33;;;;;-2.63;96.26;98775.88;4910172;28;102233;-68
2023/03/16 02:58:56;;;;;;;;;8.00;5.00;;;;;-2.69;94.95;98771.03;4896826;28;108559;-68
2023/03/16 03:01:23;;;;;;;;;4.33;2.00;;;;;-2.69;95.46;98781.63;4898489;28;102373;-68
2023/03/16 03:03:51;;;;;;;;;1.00;1.00;;;;;-2.70;95.54;98783.41;4885331;28;102009;-68
2023/03/16 03:06:18;;;;;;;;;5.67;4.00;;;;;-2.74;94.82;98789.88;4931216;28;101971;-68
2023/03/16 03:08:45;;;;;;;;;4.00;2.00;;;;;-2.75;95.51;98793.50;4901302;28;104102;-68
2023/03/16 03:11:13;;;;;;;;;5.00;4.00;;;;;-2.76;94.60;98790.97;4891186;28;102497;-69
2023/03/16 03:13:43;;;;;;;;;4.00;2.67;;;;;-2.76;95.54;98785.69;4899659;28;102417;-69
2023/03/16 03:16:10;;;;;;;;;7.00;2.00;;;;;-2.74;95.59;98799.63;4890373;28;102773;-69
2023/03/16 03:18:38;;;;;;;;;1.00;1.00;;;;;-2.76;94.83;98796.28;4900300;28;103217;-69
2023/03/16 03:21:07;;;;;;;;;10.33;5.00;;;;;-2.79;93.26;98799.97;4893740;28;102381;-69
2023/03/16 03:23:34;;;;;;;;;2.00;2.00;;;;;-2.82;92.77;98808.13;4901736;28;102022;-69
2023/03/16 03:26:03;;;;;;;;;4.67;4.67;;;;;-2.84;92.47;98806.56;4894402;28;102695;-69
2023/03/16 03:28:30;;;;;;;;;7.00;4.00;;;;;-3.01;92.57;98791.91;4903000;28;104522;-69
2023/03/16 03:30:57;;;;;;;;;7.00;4.67;;;;;-2.97;93.47;98811.91;4907272;28;102467;-69
2023/03/16 03:33:24;;;;;;;;;7.00;5.00;;;;;-2.95;94.52;98812.63;4910286;28;102235;-69
2023/03/16 03:35:56;;;;;;;;;2.00;2.00;;;;;-2.96;93.55;98813.59;4891219;28;102264;-69
2023/03/16 03:38:25;;;;;;;;;6.33;5.33;;;;;-2.97;92.93;98814.53;4900883;28;109950;-69
2023/03/16 03:40:53;;;;;;;;;5.00;4.00;;;;;-2.98;93.15;98820.81;4898278;28;104093;-69
2023/03/16 03:43:20;;;;;;;;;13.00;7.33;;;;;-3.06;93.37;98809.91;4898846;28;102229;-69
2023/03/16 03:45:47;;;;;;;;;1.00;1.00;;;;;-3.03;93.25;98819.44;4902618;28;102062;-69
2023/03/16 03:48:15;;;;;;;;;4.00;4.00;;;;;-3.03;94.36;98816.81;4898173;28;104037;-69
2023/03/16 03:50:42;;;;;;;;;3.33;2.00;;;;;-3.01;93.33;98822.81;4901876;28;102353;-69
2023/03/16 03:53:09;;;;;;;;;5.00;3.33;;;;;-3.02;93.39;98822.00;4903566;28;101930;-69
2023/03/16 03:55:36;;;;;;;;;5.00;4.33;;;;;-3.04;93.68;98826.53;4901183;28;102405;-69
2023/03/16 03:58:03;;;;;;;;;11.67;10.67;;;;;-3.06;92.43;98824.97;4895323;28;103939;-70
2023/03/16 04:00:30;;;;;;;;;5.67;4.00;;;;;-3.10;92.73;98823.47;4903662;28;102445;-69
2023/03/16 04:02:57;;;;;;;;;11.00;8.00;;;;;-3.12;92.59;98830.69;4891340;28;102332;-71
2023/03/16 04:05:27;;;;;;;;;7.00;5.00;;;;;-3.15;92.19;98837.03;4900212;28;102319;-70
2023/03/16 04:07:56;;;;;;;;;11.00;10.00;;;;;-3.18;91.92;98829.31;4886291;28;107905;-71
2023/03/16 04:10:25;;;;;;;;;15.67;10.67;;;;;-3.20;92.44;98832.06;4897626;28;102348;-70
2023/03/16 04:12:54;;;;;;;;;9.67;7.00;;;;;-3.24;92.54;98833.25;4900786;28;102049;-70
2023/03/16 04:15:21;;;;;;;;;7.67;4.67;;;;;-3.26;93.34;98839.59;4896161;28;102974;-70
2023/03/16 04:17:49;;;;;;;;;8.00;7.00;;;;;-3.26;93.53;98837.81;4899746;28;103987;-70
2023/03/16 04:20:18;;;;;;;;;9.33;8.67;;;;;-3.29;93.51;98838.00;4895468;28;103101;-69
2023/03/16 04:22:46;;;;;;;;;13.67;11.33;;;;;-3.48;92.89;98805.06;4904765;28;102443;-71
2023/03/16 04:25:15;;;;;;;;;5.33;4.00;;;;;-3.26;93.06;98845.75;4903109;28;102937;-70
2023/03/16 04:27:43;;;;;;;;;7.00;6.33;;;;;-3.26;92.99;98853.66;4897809;28;104550;-70
2023/03/16 04:30:13;;;;;;;;;12.67;10.00;;;;;-3.26;92.54;98851.03;4894465;28;102325;-70
2023/03/16 04:32:40;;;;;;;;;13.00;8.00;;;;;-3.27;93.43;98848.47;4897605;28;102165;-70
2023/03/16 04:35:09;;;;;;;;;13.00;13.00;;;;;-3.30;92.67;98859.28;4902651;28;109240;-69
2023/03/16 04:37:36;;;;;;;;;22.00;19.00;;;;;-3.35;93.63;98856.13;4905898;28;104005;-70
2023/03/16 04:40:09;;;;;;;;;20.67;14.67;;;;;-3.42;93.72;98854.88;4902663;28;102390;-70
2023/03/16 04:42:36;;;;;;;;;15.33;14.00;;;;;-3.41;92.69;98867.97;4904018;28;102156;-70
2023/03/16 04:45:04;;;;;;;;;29.33;20.67;;;;;-3.40;93.76;98868.81;4896561;28;102051;-71
2023/03/16 04:47:32;;;;;;;;;25.67;23.33;;;;;-3.41;93.40;98872.41;4889600;28;104029;-72
2023/03/16 04:50:01;;;;;;;;;18.00;18.00;;;;;-3.42;93.23;98871.53;4898675;28;102689;-70
2023/03/16 04:52:28;;;;;;;;;15.67;12.67;;;;;-3.40;94.18;98874.09;4899266;28;102303;-69
2023/03/16 04:54:55;;;;;;;;;10.67;10.33;;;;;-3.39;93.76;98870.50;4902479;28;102332;-70
2023/03/16 04:57:23;;;;;;;;;12.33;10.00;;;;;-3.39;93.39;98871.34;4901284;28;106621;-70
2023/03/16 04:59:50;;;;;;;;;9.67;8.67;;;;;-3.37;93.25;98879.16;4896682;28;102200;-70
2023/03/16 05:02:18;;;;;;;;;7.33;5.67;;;;;-3.40;92.74;98880.22;4894031;28;103248;-71
2023/03/16 05:04:46;;;;;;;;;8.00;6.33;;;;;-3.40;93.45;98871.44;4903669;28;102333;-69
2023/03/16 05:07:13;;;;;;;;;9.33;7.00;;;;;-3.38;94.08;98882.78;4898456;28;104026;-70
2023/03/16 05:09:40;;;;;;;;;16.67;11.00;;;;;-3.36;93.13;98880.84;4899574;28;102154;-70
2023/03/16 05:12:08;;;;;;;;;7.00;6.00;;;;;-3.33;94.35;98878.00;4909818;28;102263;-69
2023/03/16 05:14:35;;;;;;;;;9.33;4.00;;;;;-3.29;93.38;98874.19;4901247;28;103155;-70
2023/03/16 05:17:02;;;;;;;;;8.33;7.67;;;;;-3.25;93.99;98883.59;4898241;28;103790;-72
2023/03/16 05:19:29;;;;;;;;;14.00;10.33;;;;;-3.25;92.82;98886.25;4898906;28;102403;-71
2023/03/16 05:21:57;;;;;;;;;10.00;9.33;;;;;-3.24;93.74;98877.34;4902937;28;102735;-71
2023/03/16 05:24:24;;;;;;;;;14.00;13.00;;;;;-3.21;93.14;98879.78;4902202;28;102292;-69
2023/03/16 05:26:51;;;;;;;;;14.33;13.33;;;;;-3.22;93.33;98881.59;4901361;28;104175;-69
2023/03/16 05:29:18;;;;;;;;;12.33;12.33;;;;;-3.21;93.68;98885.91;4900158;28;102407;-71
2023/03/16 05:31:46;;;;;;;;;23.67;22.00;;;;;-3.16;93.51;98890.88;4901669;28;102026;-71
2023/03/16 05:34:14;;;;;;;;;16.00;14.00;;;;;-3.11;93.57;98880.84;4898781;28;102378;-69
2023/03/16 05:36:41;;;;;;;;;23.67;14.00;;;;;-3.05;93.54;98890.09;4900871;28;104004;-70
2023/03/16 05:39:08;;;;;;;;;10.00;9.33;;;;;-3.04;94.31;98892.66;4899849;28;109945;-70
2023/03/16 05:41:35;;;;;;;;;10.00;10.00;;;;;-2.97;93.72;98888.59;4906046;28;102223;-70
2023/03/16 05:44:03;;;;;;;;;12.33;12.33;;;;;-2.89;94.25;98901.31;4899388;28;102101;-70
2023/03/16 05:46:30;;;;;;;;;5.33;4.00;;;;;-2.82;93.12;98902.53;4904154;28;104004;-69
2023/03/16 05:48:58;;;;;;;;;12.00;9.00;;;;;-2.79;93.85;98899.66;4919719;28;102530;-71
2023/03/16 05:51:27;;;;;;;;;11.00;9.33;;;;;-2.68;93.16;98904.19;4897296;28;102031;-71
2023/03/16 05:53:56;;;;;;;;;14.67;13.00;;;;;-2.89;93.12;98856.34;4909605;28;102250;-70
2023/03/16 05:56:24;;;;;;;;;18.67;14.67;;;;;-2.55;93.26;98907.63;4898090;28;108547;-70
2023/03/16 05:58:52;;;;;;;;;16.67;15.67;;;;;-2.45;93.51;98906.88;4903213;28;102707;-71
2023/03/16 06:01:20;;;;;;;;;17.00;14.67;;;;;-2.37;94.06;98906.28;4902136;28;102212;-70
2023/03/16 06:03:50;;;;;;;;;13.00;8.00;;;;;-2.29;92.80;98918.00;4901253;28;102324;-70
2023/03/16 06:06:20;;;;;;;;;13.00;7.00;;;;;-2.17;93.39;98926.88;4896026;28;104047;-71
2023/03/16 06:08:47;;;;;;;;;16.67;14.00;;;;;-2.09;94.19;98929.78;4903402;28;102241;-70
2023/03/16 06:11:14;;;;;;;;;8.67;7.00;;;;;-2.00;92.86;98929.09;4902898;28;102408;-70
2023/03/16 06:13:42;;;;;;;;;8.00;5.67;;;;;-1.93;93.17;98925.03;4902056;28;102473;-72
2023/03/16 06:16:10;;;;;;;;;10.00;10.00;;;;;-1.84;93.53;98928.78;4897537;28;104024;-70
2023/03/16 06:18:38;;;;;;;;;8.67;7.00;;;;;-1.73;92.71;98941.22;4901521;28;102429;-70
2023/03/16 06:21:06;;;;;;;;;10.00;8.00;;;;;-1.67;94.06;98936.34;4905393;28;102343;-71
2023/03/16 06:23:33;;;;;;;;;11.00;7.00;;;;;-1.58;93.45;98943.59;4901814;28;102430;-71
2023/03/16 06:26:00;;;;;;;;;5.67;5.00;;;;;-1.48;93.25;98954.31;4902710;28;104016;-71
2023/03/16 06:28:27;;;;;;;;;16.33;15.00;;;;;-1.45;92.72;98941.69;4910537;28;102342;-73
2023/03/16 06:30:57;;;;;;;;;27.00;21.00;;;;;-1.40;93.81;98950.09;4905561;28;102119;-72
2023/03/16 06:33:24;;;;;;;;;23.00;17.00;;;;;-1.25;94.00;98949.88;4906344;28;102287;-72
2023/03/16 06:35:51;;;;;;;;;25.67;18.33;;;;;-1.14;94.10;98944.59;4900157;28;104180;-71
2023/03/16 06:38:18;;;;;;;;;22.00;18.00;;;;;-1.06;92.94;98953.66;4899634;28;108398;-71
2023/03/16 06:40:50;;;;;;;;;14.33;11.00;;;;;-0.95;92.28;98952.84;4898219;28;102359;-73
2023/03/16 06:43:18;;;;;;;;;22.67;18.67;;;;;-0.91;93.45;98963.09;4888803;28;102336;-71
2023/03/16 06:45:45;;;;;;;;;21.67;17.67;;;;;-0.73;92.61;98957.28;4900180;28;103967;-72
2023/03/16 06:48:12;;;;;;;;;25.33;20.67;;;;;-0.45;92.82;98965.56;4921582;28;102674;-72
2023/03/16 06:50:39;;;;;;;;;22.67;17.00;;;;;-0.22;91.00;98969.03;4895788;28;102136;-72
2023/03/16 06:53:07;;;;;;;;;27.33;19.33;;;;;-0.12;89.82;98962.00;4893710;28;102619;-72
2023/03/16 06:55:34;;;;;;;;;26.67;20.00;;;;;0.13;89.48;98970.63;4888982;28;104036;-71
2023/03/16 06:58:01;;;;;;;;;25.67;18.00;;;;;0.33;88.28;98968.00;4900233;28;102581;-71
2023/03/16 07:00:29;;;;;;;;;28.00;24.33;;;;;0.53;86.87;98969.00;4903325;28;103267;-73
2023/03/16 07:02:56;;;;;;;;;32.33;26.67;;;;;0.63;87.29;98977.06;4892807;28;102390;-72
2023/03/16 07:05:26;;;;;;;;;36.00;29.33;;;;;0.69;86.26;98973.84;4897440;28;109421;-71
2023/03/16 07:07:53;;;;;;;;;35.33;26.33;;;;;0.77;86.32;98966.06;4901645;28;102638;-71
2023/03/16 07:10:20;;;;;;;;;82.00;60.75;;;;;0.29;87.48;98979.00;4896872;28;102360;-71
2023/03/16 07:12:49;;;;;;;;;68.00;51.33;;;;;0.44;86.67;98980.41;4900044;28;102410;-70
2023/03/16 07:15:16;;;;;;;;;63.67;50.33;;;;;0.52;88.01;98983.25;4899595;28;104879;-70
2023/03/16 07:17:43;;;;;;;;;71.75;56.00;;;;;0.51;87.83;98986.88;4899112;28;102896;-70
2023/03/16 07:20:11;;;;;;;;;71.75;55.00;;;;;0.47;88.57;98980.13;4899250;28;101933;-70
2023/03/16 07:22:39;;;;;;;;;60.33;46.00;;;;;0.49;87.05;98988.84;4897390;28;104013;-70
2023/03/16 07:25:07;;;;;;;;;75.00;51.33;;;;;0.49;87.69;98988.00;4907784;28;104002;-69
2023/03/16 07:27:34;;;;;;;;;65.00;49.33;;;;;0.55;88.07;98988.31;4897121;28;103187;-69
2023/03/16 07:30:01;;;;;;;;;67.67;52.33;;;;;0.65;87.12;98989.25;4901157;28;102238;-70
2023/03/16 07:32:28;;;;;;;;;60.33;48.00;;;;;0.81;86.45;99000.25;4905907;28;102287;-70
2023/03/16 07:34:56;;;;;;;;;63.33;46.00;;;;;0.60;85.50;98991.44;4895064;28;108493;-70
2023/03/16 07:37:25;;;;;;;;;61.67;47.67;;;;;0.75;85.10;98995.47;4901134;28;102425;-71
2023/03/16 07:39:52;;;;;;;;;61.00;47.00;;;;;0.73;84.38;98991.25;4901883;28;102211;-70
2023/03/16 07:42:19;;;;;;;;;58.00;44.00;;;;;1.09;84.56;98993.44;4907432;28;102215;-70
2023/03/16 07:44:46;;;;;;;;;58.00;45.67;;;;;1.21;84.01;98995.06;4901784;28;103715;-71
2023/03/16 07:47:16;;;;;;;;;59.33;46.67;;;;;1.31;82.58;98995.91;4901690;28;102972;-71
2023/03/16 07:49:43;;;;;;;;;44.00;38.33;;;;;1.83;82.77;98999.34;4893955;28;105263;-70
2023/03/16 07:52:12;;;;;;;;;48.00;42.33;;;;;1.77;81.84;98999.88;4892437;28;102166;-71
2023/03/16 07:54:40;;;;;;;;;49.33;42.00;;;;;1.72;80.42;98994.97;4903112;28;104103;-71
2023/03/16 07:57:08;;;;;;;;;65.33;46.67;;;;;1.73;80.33;99004.66;4892776;28;102255;-69
2023/03/16 07:59:35;;;;;;;;;52.33;45.00;;;;;2.09;80.42;98997.00;4901679;28;102395;-71
2023/03/16 08:02:02;;;;;;;;;61.00;44.33;;;;;2.03;79.08;98995.72;4893565;28;102497;-70
2023/03/16 08:04:30;;;;;;;;;48.00;40.67;;;;;2.18;78.61;98996.19;4907189;28;103980;-70
2023/03/16 08:06:59;;;;;;;;;36.67;32.33;;;;;2.53;77.65;98977.78;4902531;28;102290;-70
2023/03/16 08:09:26;;;;;;;;;58.33;40.33;;;;;2.44;76.73;99002.66;4901869;28;102394;-70
2023/03/16 08:11:53;;;;;;;;;60.67;44.67;;;;;2.46;78.23;98998.03;4903084;28;102120;-70
2023/03/16 08:14:20;;;;;;;;;46.00;34.67;;;;;2.74;76.55;99000.84;4897503;28;103952;-70
2023/03/16 08:16:47;;;;;;;;;67.00;50.00;;;;;2.26;76.34;98996.31;4900538;28;102751;-70
2023/03/16 08:19:16;;;;;;;;;56.33;42.33;;;;;2.40;77.50;99003.91;4902911;28;102355;-71
2023/03/16 08:21:43;;;;;;;;;60.67;46.67;;;;;2.04;78.26;99012.56;4907323;28;102454;-69
2023/03/16 08:24:28;;;;;;;;;66.00;46.00;;;;;2.00;78.90;99012.00;4906971;28;108837;-70
2023/03/16 08:26:56;;;;;;;;;44.67;38.33;;;;;2.44;78.57;99008.00;4895480;28;102213;-69
2023/03/16 08:29:24;;;;;;;;;64.00;49.33;;;;;2.41;77.09;98997.59;4905012;28;102247;-69
2023/03/16 08:31:55;;;;;;;;;57.33;42.67;;;;;2.72;76.04;99008.13;4905438;28;102459;-70
2023/03/16 08:34:23;;;;;;;;;43.00;31.33;;;;;2.78;74.32;99007.56;4902166;28;104087;-68
2023/03/16 08:36:50;;;;;;;;;54.00;42.67;;;;;3.04;73.69;99003.31;4893058;28;102942;-69
2023/03/16 08:39:17;;;;;;;;;56.67;43.67;;;;;3.17;73.49;99001.19;4894737;28;102564;-69
2023/03/16 08:41:45;;;;;;;;;60.33;46.67;;;;;3.06;74.45;99001.34;4900522;28;102208;-70
2023/03/16 08:44:13;;;;;;;;;57.00;43.00;;;;;3.31;73.18;99003.38;4897595;28;104054;-69
2023/03/16 08:46:41;;;;;;;;;56.67;42.33;;;;;3.34;72.25;99004.91;4904179;28;102732;-69
2023/03/16 08:49:08;;;;;;;;;50.67;38.33;;;;;3.71;70.29;98999.56;4906325;28;102006;-69
2023/03/16 08:51:35;;;;;;;;;45.00;39.00;;;;;3.92;70.44;99016.19;4902551;28;102498;-69
2023/03/16 08:54:03;;;;;;;;;61.33;47.00;;;;;3.95;71.23;99011.41;4900795;28;103063;-69
2023/03/16 08:56:30;;;;;;;;;69.33;51.00;;;;;3.77;70.37;99015.03;4903648;28;102358;-70
2023/03/16 08:58:57;;;;;;;;;59.67;45.00;;;;;3.60;71.69;99028.16;4903634;28;102976;-70
2023/03/16 09:01:25;;;;;;;;;59.67;48.00;;;;;3.21;72.60;99021.28;4898336;28;103281;-69
2023/03/16 09:03:53;;;;;;;;;56.33;45.33;;;;;3.17;72.64;99009.19;4900203;28;103985;-68
2023/03/16 09:06:21;;;;;;;;;55.33;45.67;;;;;3.10;71.24;99024.13;4897822;28;106207;-70
2023/03/16 09:08:48;;;;;;;;;45.33;39.67;;;;;3.08;71.12;99034.09;4897526;28;102557;-69
2023/03/16 09:11:17;;;;;;;;;46.33;38.00;;;;;2.73;71.54;99037.38;4901404;28;102410;-69
2023/03/16 09:13:46;;;;;;;;;44.00;37.33;;;;;2.62;73.64;99035.66;4894825;28;103706;-69
2023/03/16 09:16:15;;;;;;;;;41.33;37.00;;;;;2.99;73.24;99037.63;4899710;28;102053;-70
2023/03/16 09:18:42;;;;;;;;;32.00;25.75;;;;;3.08;69.57;99031.41;4907098;28;102315;-69
2023/03/16 09:21:12;;;;;;;;;37.75;32.25;;;;;3.30;70.41;99031.09;4908227;28;102755;-70
2023/03/16 09:23:43;;;;;;;;;29.00;23.75;;;;;3.76;69.95;99040.09;4907809;28;103965;-70
2023/03/16 09:26:12;;;;;;;;;46.00;37.33;;;;;3.65;69.94;99040.28;4905805;28;102525;-70
2023/03/16 09:28:40;;;;;;;;;33.00;24.25;;;;;3.91;67.78;99042.13;4906325;28;102279;-69
2023/03/16 09:31:14;;;;;;;;;20.25;20.25;;;;;4.22;67.28;99033.78;4898875;28;102324;-69
2023/03/16 09:33:41;;;;;;;;;15.75;15.00;;;;;4.20;65.84;99051.81;4899498;28;104380;-68
2023/03/16 09:36:10;;;;;;;;;23.75;21.25;;;;;3.89;65.88;99038.75;4899161;28;102233;-69
2023/03/16 09:38:38;;;;;;;;;25.75;22.25;;;;;4.17;66.89;99044.09;4894313;28;102435;-70
2023/03/16 09:41:22;;;;;;;;;38.00;29.75;;;;;4.25;64.81;99045.03;4902280;28;103250;-69
2023/03/16 09:44:21;;;;;;;;;27.75;23.75;;;;;4.65;62.69;99043.75;4896772;28;102962;-70
2023/03/16 09:46:50;;;;;;;;;27.50;18.50;;;;;4.64;62.25;99013.47;4907895;28;102326;-71
2023/03/16 09:49:27;;;;;;;;;27.00;26.25;;;;;4.57;63.77;99044.53;4899944;28;102045;-70
2023/03/16 09:52:07;;;;;;;;;33.75;29.00;;;;;4.34;63.26;99049.47;4903941;28;102046;-70
2023/03/16 09:54:58;;;;;;;;;30.50;27.00;;;;;3.81;63.04;99046.69;4899242;28;108945;-70
2023/03/16 09:57:29;;;;;;;;;25.00;18.50;;;;;3.66;62.34;99050.81;4899667;28;102355;-69
2023/03/16 10:00:22;;;;;;;;;12.75;11.00;;;;;3.29;63.95;99029.41;4901757;28;102318;-69
2023/03/16 10:02:56;;;;;;;;;15.50;13.00;;;;;3.83;64.69;99054.53;4902970;28;102594;-69
2023/03/16 10:05:26;;;;;;;;;37.50;30.25;;;;;4.07;63.59;99046.81;4892109;28;103955;-69
2023/03/16 10:08:04;;;;;;;;;22.25;18.75;;;;;4.75;63.81;99060.59;4904341;28;103138;-69
2023/03/16 10:10:43;;;;;;;;;24.25;20.50;;;;;4.70;57.79;99054.88;4900836;28;102036;-69
2023/03/16 10:13:34;;;;;;;;;22.00;17.25;;;;;4.06;61.14;99055.84;4898400;28;102521;-69
2023/03/16 10:16:08;;;;;;;;;20.75;16.00;;;;;3.97;61.34;99054.91;4900556;28;109358;-69
2023/03/16 10:18:43;;;;;;;;;23.00;20.75;;;;;4.18;61.38;99049.31;4901984;28;102420;-69
2023/03/16 10:21:17;;;;;;;;;14.75;14.00;;;;;4.33;60.94;99066.53;4904456;28;102287;-70
2023/03/16 10:23:47;;;;;;;;;19.50;14.00;;;;;4.40;59.96;99067.63;4897479;28;102038;-70
2023/03/16 10:26:23;;;;;;;;;19.00;17.00;;;;;4.30;59.37;99064.16;4900643;28;104217;-69
2023/03/16 10:28:51;;;;;;;;;16.25;12.25;;;;;4.43;59.46;99067.31;4905187;28;102582;-69
2023/03/16 10:31:21;;;;;;;;;19.75;15.50;;;;;4.60;59.37;99056.75;4903210;28;102222;-70
2023/03/16 10:33:57;;;;;;;;;16.25;16.00;;;;;4.61;59.88;99061.97;4908854;28;102210;-69
2023/03/16 10:36:32;;;;;;;;;14.50;14.25;;;;;4.57;59.13;99055.25;4907607;28;103967;-69
2023/03/16 10:39:05;;;;;;;;;18.00;17.00;;;;;4.90;59.76;99067.13;4905648;28;102352;-68
2023/03/16 10:41:38;;;;;;;;;17.50;16.00;;;;;4.03;61.11;99067.69;4899091;28;102174;-70
2023/03/16 10:44:20;;;;;;;;;21.50;18.00;;;;;3.96;60.91;99065.78;4905413;28;102469;-69
2023/03/16 10:47:07;;;;;;;;;17.00;15.25;;;;;3.83;61.64;99060.72;4897592;28;104179;-70
2023/03/16 10:49:45;;;;;;;;;13.00;11.50;;;;;3.73;60.35;99064.44;4903234;28;103126;-68
2023/03/16 10:52:19;;;;;;;;;10.25;10.25;;;;;4.09;61.74;99068.94;4906379;28;101999;-69
2023/03/16 10:54:56;;;;;;;;;16.75;15.00;;;;;4.35;60.17;99064.56;4901010;28;102474;-69
2023/03/16 10:57:36;;;;;;;;;17.25;13.75;;;;;4.87;58.82;99070.94;4902906;28;103964;-69
2023/03/16 11:00:24;;;;;;;;;13.25;12.25;;;;;4.89;55.22;99066.28;4900322;28;102235;-70
2023/03/16 11:02:54;;;;;;;;;14.00;11.25;;;;;4.93;53.65;99073.00;4897434;28;102698;-70
2023/03/16 11:05:31;;;;;;;;;15.00;11.00;;;;;5.40;55.87;99059.31;4895378;28;102907;-70
2023/03/16 11:08:12;;;;;;;;;15.75;13.00;;;;;5.52;55.86;99059.88;4902498;28;108901;-69
2023/03/16 11:11:07;;;;;;;;;13.00;12.75;;;;;5.29;55.79;99057.72;4900431;28;102127;-68
2023/03/16 11:13:37;;;;;;;;;15.75;13.75;;;;;5.15;56.56;99066.31;4897239;28;102190;-69
2023/03/16 11:16:20;;;;;;;;;14.00;11.50;;;;;5.18;57.27;99060.63;4900718;28;102366;-71
2023/03/16 11:18:53;;;;;;;;;14.75;13.50;;;;;4.76;58.52;99065.81;4902384;28;103187;-70
2023/03/16 11:21:41;;;;;;;;;12.00;12.00;;;;;4.66;57.14;99064.19;4898260;28;102497;-70
2023/03/16 11:24:17;;;;;;;;;11.25;10.00;;;;;4.71;57.30;99068.13;4897452;28;102276;-70
2023/03/16 11:26:53;;;;;;;;;13.50;11.00;;;;;5.01;54.79;99053.47;4900366;28;102493;-70
2023/03/16 11:29:37;;;;;;;;;8.50;7.75;;;;;5.16;53.92;99062.66;4895281;28;103982;-69
2023/03/16 11:32:11;;;;;;;;;7.25;7.00;;;;;5.59;52.57;99052.88;4918392;28;102130;-70
2023/03/16 11:34:42;;;;;;;;;6.75;6.50;;;;;5.51;55.60;99058.19;4901320;28;102648;-69